Time;durP1;ratioP1;P1;durP2;ratioP2;P2;SDS_P1;SDS_P2;PMS_P1;PMS_P2;Temp;Humidity;BMP_temperature;BMP_pressure;BME280_temperature;BME280_humidity;BME280_pressure;Samples;Min_cycle;Max_cycle;Signal;HPM_P1;HPM_P2
2022/04/30 00:00:58;;;;;;;0.40;0.20;;;11.70;99.90;;;;;;5009718;28;20411;-71
2022/04/30 00:03:28;;;;;;;2.00;0.90;;;11.70;99.90;;;;;;5010929;28;20373;-71
2022/04/30 00:05:56;;;;;;;0.40;0.40;;;11.60;99.90;;;;;;5009992;28;20413;-71
2022/04/30 00:08:22;;;;;;;0.60;0.60;;;11.70;99.90;;;;;;5011002;28;20412;-71
2022/04/30 00:10:50;;;;;;;0.40;0.20;;;11.70;99.90;;;;;;5009952;28;20506;-71
2022/04/30 00:13:16;;;;;;;0.40;0.30;;;11.70;99.90;;;;;;5005706;28;21220;-70
2022/04/30 00:15:41;;;;;;;0.40;0.30;;;11.70;99.90;;;;;;5008916;28;20491;-70
2022/04/30 00:18:10;;;;;;;0.40;0.30;;;11.80;99.90;;;;;;5010071;28;20937;-71
2022/04/30 00:20:37;;;;;;;0.40;0.30;;;11.80;99.90;;;;;;5010946;28;20393;-70
2022/04/30 00:23:04;;;;;;;0.40;0.40;;;11.80;99.90;;;;;;5009605;28;20393;-70
2022/04/30 00:25:30;;;;;;;0.40;0.40;;;11.80;99.90;;;;;;5010490;28;20397;-70
2022/04/30 00:27:55;;;;;;;0.40;0.20;;;11.80;99.90;;;;;;5026065;28;20707;-71
2022/04/30 00:30:21;;;;;;;0.40;0.20;;;11.70;99.90;;;;;;5013338;28;20421;-71
2022/04/30 00:32:48;;;;;;;0.40;0.20;;;11.70;99.90;;;;;;5005722;28;20393;-71
2022/04/30 00:35:14;;;;;;;0.40;0.20;;;11.70;99.90;;;;;;5013775;28;20439;-71
2022/04/30 00:37:40;;;;;;;0.40;0.30;;;11.60;99.90;;;;;;5015211;28;20432;-71
2022/04/30 00:40:06;;;;;;;0.40;0.20;;;11.60;99.90;;;;;;5014436;28;20452;-70
2022/04/30 00:42:35;;;;;;;0.40;0.30;;;11.60;99.90;;;;;;5012619;28;21008;-71
2022/04/30 00:45:01;;;;;;;0.40;0.30;;;11.60;99.90;;;;;;4998243;28;20374;-71
2022/04/30 00:47:26;;;;;;;0.90;0.80;;;11.50;99.90;;;;;;5013366;28;20392;-71
2022/04/30 00:49:53;;;;;;;0.40;0.30;;;11.50;99.90;;;;;;5013922;28;20801;-71
2022/04/30 00:52:20;;;;;;;0.40;0.20;;;11.50;99.90;;;;;;5013449;28;20403;-73
2022/04/30 00:54:49;;;;;;;0.50;0.50;;;11.40;99.90;;;;;;5014180;28;20863;-71
2022/04/30 00:57:19;;;;;;;0.50;0.50;;;11.80;99.90;;;;;;5014170;28;20491;-71
2022/04/30 00:59:47;;;;;;;0.50;0.50;;;11.40;99.90;;;;;;5013525;28;20408;-70
2022/04/30 01:02:12;;;;;;;0.40;0.20;;;11.50;99.90;;;;;;5013948;28;20389;-71
2022/04/30 01:04:38;;;;;;;1.50;1.10;;;11.50;99.90;;;;;;5013378;28;20448;-70
2022/04/30 01:07:08;;;;;;;0.40;0.30;;;11.70;99.90;;;;;;5013785;28;20404;-71
2022/04/30 01:09:38;;;;;;;0.40;0.30;;;11.70;99.90;;;;;;5011589;28;20754;-71
2022/04/30 01:12:12;;;;;;;0.40;0.20;;;11.70;99.90;;;;;;5013200;28;20454;-70
2022/04/30 01:14:39;;;;;;;0.40;0.30;;;11.70;99.90;;;;;;5012729;28;20428;-70
2022/04/30 01:17:08;;;;;;;0.40;0.20;;;11.60;99.90;;;;;;5014080;28;20381;-70
2022/04/30 01:19:37;;;;;;;0.40;0.20;;;11.80;99.90;;;;;;5013534;28;20484;-73
2022/04/30 01:22:28;;;;;;;0.40;0.20;;;11.80;99.90;;;;;;5013630;28;20400;-71
2022/04/30 01:24:58;;;;;;;0.40;0.40;;;11.90;99.90;;;;;;5012272;28;20488;-71
2022/04/30 01:27:28;;;;;;;0.40;0.30;;;11.90;99.90;;;;;;4994201;28;20394;-70
2022/04/30 01:30:00;;;;;;;0.40;0.20;;;11.90;99.90;;;;;;5007494;28;20952;-71
2022/04/30 01:38:05;;;;;;;0.40;0.20;;;12.10;99.90;;;;;;5012856;28;20396;-70
2022/04/30 01:40:31;;;;;;;0.50;0.50;;;12.00;99.90;;;;;;5011721;28;20425;-70
2022/04/30 01:43:01;;;;;;;0.40;0.20;;;12.00;99.90;;;;;;5012648;28;20392;-71
2022/04/30 01:45:28;;;;;;;0.40;0.30;;;12.00;99.90;;;;;;5013246;28;20484;-71
2022/04/30 01:47:56;;;;;;;0.40;0.30;;;12.10;99.90;;;;;;5012766;28;20391;-73
2022/04/30 01:50:22;;;;;;;0.40;0.40;;;12.00;99.90;;;;;;5000459;28;20511;-70
2022/04/30 01:52:48;;;;;;;0.90;0.90;;;12.10;99.90;;;;;;5013144;28;20487;-71
2022/04/30 01:55:13;;;;;;;0.50;0.50;;;12.20;99.90;;;;;;5012087;28;20483;-71
2022/04/30 01:57:41;;;;;;;0.60;0.60;;;12.30;99.90;;;;;;5012736;28;20404;-71
2022/04/30 02:00:12;;;;;;;0.40;0.20;;;12.30;99.90;;;;;;5012470;28;20423;-71
2022/04/30 02:02:39;;;;;;;0.83;0.83;;;12.20;99.90;;;;;;5012859;28;20838;-71
2022/04/30 02:05:07;;;;;;;0.40;0.20;;;12.20;99.90;;;;;;5012281;28;20777;-74
2022/04/30 02:07:37;;;;;;;0.40;0.30;;;11.90;99.90;;;;;;5012680;28;20932;-71
2022/04/30 02:10:05;;;;;;;0.40;0.20;;;11.90;99.90;;;;;;5012844;28;20503;-71
2022/04/30 02:12:32;;;;;;;1.00;0.90;;;11.90;99.90;;;;;;5010958;28;20412;-71
2022/04/30 02:14:59;;;;;;;0.40;0.40;;;11.80;99.90;;;;;;5012986;28;20381;-71
2022/04/30 02:17:28;;;;;;;0.40;0.20;;;11.80;99.90;;;;;;5011774;28;20389;-71
2022/04/30 02:22:41;;;;;;;0.40;0.30;;;11.80;99.90;;;;;;5012855;28;20774;-71
2022/04/30 02:25:09;;;;;;;0.40;0.20;;;11.50;99.90;;;;;;5028160;28;20389;-71
2022/04/30 02:27:38;;;;;;;0.40;0.40;;;11.50;99.90;;;;;;5011667;28;20404;-71
2022/04/30 02:30:12;;;;;;;0.40;0.30;;;11.50;99.90;;;;;;5001926;28;20410;-72
2022/04/30 02:32:41;;;;;;;2.40;1.70;;;11.40;99.90;;;;;;5021818;28;20823;-71
2022/04/30 02:35:09;;;;;;;0.45;0.43;;;11.30;99.90;;;;;;5020447;28;20393;-71
2022/04/30 02:37:35;;;;;;;0.40;0.20;;;11.30;99.90;;;;;;5011428;28;20415;-71
2022/04/30 02:40:01;;;;;;;0.40;0.20;;;11.30;99.90;;;;;;5012408;28;20511;-71
2022/04/30 02:42:27;;;;;;;0.40;0.30;;;11.20;99.90;;;;;;5011532;28;20865;-73
2022/04/30 02:44:53;;;;;;;0.40;0.20;;;11.30;99.90;;;;;;5011910;28;20435;-71
2022/04/30 02:47:19;;;;;;;0.40;0.22;;;11.20;99.90;;;;;;5012177;28;20507;-71
2022/04/30 02:49:44;;;;;;;0.40;0.25;;;11.30;99.90;;;;;;5007187;28;20409;-71
2022/04/30 02:52:10;;;;;;;0.40;0.20;;;11.20;99.90;;;;;;5003024;28;20473;-71
2022/04/30 02:54:35;;;;;;;0.60;0.60;;;11.20;99.90;;;;;;5011748;28;20401;-74
2022/04/30 02:57:01;;;;;;;0.40;0.20;;;11.30;99.90;;;;;;5011832;28;20738;-71
2022/04/30 03:02:12;;;;;;;0.40;0.30;;;11.10;99.90;;;;;;5011891;28;20395;-71
2022/04/30 03:04:38;;;;;;;0.40;0.30;;;11.00;99.90;;;;;;5026577;28;20500;-71
2022/04/30 03:07:04;;;;;;;1.30;1.20;;;11.10;99.90;;;;;;5010852;28;20435;-72
2022/04/30 03:09:31;;;;;;;1.20;0.70;;;11.00;99.90;;;;;;5010988;28;20494;-71
2022/04/30 03:11:58;;;;;;;0.40;0.40;;;10.90;99.90;;;;;;5010017;28;20456;-72
2022/04/30 03:14:23;;;;;;;0.40;0.20;;;10.90;99.90;;;;;;5011365;28;20396;-72
2022/04/30 03:22:19;;;;;;;0.40;0.30;;;10.80;99.90;;;;;;5004430;28;20465;-71
2022/04/30 03:24:44;;;;;;;0.40;0.30;;;10.80;99.90;;;;;;5007084;28;20521;-71
2022/04/30 03:27:11;;;;;;;0.40;0.30;;;10.90;99.90;;;;;;5014823;28;20440;-71
2022/04/30 03:29:37;;;;;;;0.40;0.20;;;10.90;99.90;;;;;;5011570;28;20385;-71
2022/04/30 03:32:03;;;;;;;0.80;0.80;;;10.80;99.90;;;;;;5021200;28;20772;-71
2022/04/30 03:34:32;;;;;;;0.40;0.20;;;10.80;99.90;;;;;;5019626;28;20397;-71
2022/04/30 03:36:58;;;;;;;0.40;0.30;;;10.80;99.90;;;;;;5011604;28;20417;-71
2022/04/30 03:39:24;;;;;;;0.40;0.30;;;10.70;99.90;;;;;;5010774;28;20432;-71
2022/04/30 03:41:49;;;;;;;2.30;0.80;;;10.70;99.90;;;;;;5011361;28;20766;-71
2022/04/30 03:44:17;;;;;;;0.80;0.50;;;10.60;99.90;;;;;;5010148;28;21695;-73
2022/04/30 03:46:43;;;;;;;0.40;0.40;;;10.70;99.90;;;;;;5011073;28;20385;-71
2022/04/30 03:49:09;;;;;;;0.47;0.47;;;10.70;99.90;;;;;;5010099;28;20385;-73
2022/04/30 03:51:35;;;;;;;0.40;0.23;;;10.60;99.90;;;;;;5006339;28;20508;-72
2022/04/30 03:54:01;;;;;;;0.40;0.20;;;10.60;99.90;;;;;;5011413;28;20388;-71
2022/04/30 03:56:26;;;;;;;0.40;0.30;;;10.70;99.90;;;;;;5011225;28;20485;-71
2022/04/30 03:58:52;;;;;;;0.40;0.30;;;10.60;99.90;;;;;;5025408;28;20893;-71
2022/04/30 04:01:18;;;;;;;0.40;0.20;;;10.60;99.90;;;;;;5010350;28;20870;-71
2022/04/30 04:03:44;;;;;;;0.50;0.50;;;10.70;99.90;;;;;;5009374;28;20443;-72
2022/04/30 04:06:10;;;;;;;0.80;0.60;;;10.60;99.90;;;;;;5010601;28;20417;-71
2022/04/30 04:08:36;;;;;;;0.40;0.40;;;10.60;99.90;;;;;;5010504;28;20463;-71
2022/04/30 04:11:10;;;;;;;0.40;0.30;;;10.60;99.90;;;;;;5010008;28;20450;-71
2022/04/30 04:19:11;;;;;;;0.40;0.30;;;10.50;99.90;;;;;;5009764;28;20407;-71
2022/04/30 04:21:42;;;;;;;0.40;0.30;;;10.60;99.90;;;;;;5010613;28;20404;-72
2022/04/30 04:27:20;;;;;;;0.40;0.40;;;10.50;99.90;;;;;;4991020;28;20378;-73
2022/04/30 04:29:52;;;;;;;0.40;0.20;;;10.50;99.90;;;;;;5004140;28;20510;-71
2022/04/30 04:32:18;;;;;;;0.40;0.30;;;10.50;99.90;;;;;;5022393;28;20479;-71
2022/04/30 04:35:07;;;;;;;0.60;0.60;;;10.50;99.90;;;;;;5028157;28;20872;-71
2022/04/30 04:37:36;;;;;;;0.40;0.30;;;10.40;99.90;;;;;;5011201;28;20397;-71
2022/04/30 04:40:11;;;;;;;0.40;0.20;;;10.40;99.90;;;;;;5005868;28;20903;-71
2022/04/30 04:43:30;;;;;;;0.40;0.20;;;10.50;99.90;;;;;;5008871;28;20405;-72
2022/04/30 04:49:11;;;;;;;0.40;0.20;;;10.50;99.90;;;;;;5007227;28;20436;-71
2022/04/30 04:52:02;;;;;;;1.90;1.00;;;10.50;99.90;;;;;;5009074;28;20420;-72
2022/04/30 04:54:48;;;;;;;0.40;0.30;;;10.50;99.90;;;;;;4989891;28;20402;-71
2022/04/30 04:57:23;;;;;;;1.00;0.50;;;10.70;99.90;;;;;;5005313;28;20737;-71
2022/04/30 05:00:03;;;;;;;0.40;0.40;;;10.60;99.90;;;;;;5010408;28;20404;-71
2022/04/30 05:06:27;;;;;;;0.40;0.20;;;10.70;99.90;;;;;;5009060;28;20408;-71
2022/04/30 05:09:19;;;;;;;0.40;0.30;;;10.70;99.90;;;;;;5002623;28;20404;-71
2022/04/30 05:15:37;;;;;;;0.40;0.20;;;10.70;99.90;;;;;;4998044;28;20413;-71
2022/04/30 05:18:13;;;;;;;;;;;;;;;;;;;;;
2022/04/30 05:20:47;;;;;;;0.40;0.20;;;10.60;99.90;;;;;;5013319;28;20744;-72
2022/04/30 05:23:18;;;;;;;0.40;0.20;;;10.60;99.90;;;;;;5013545;28;20401;-71
2022/04/30 05:26:01;;;;;;;0.40;0.30;;;10.50;99.90;;;;;;5012916;28;20409;-72
2022/04/30 05:28:53;;;;;;;0.40;0.20;;;10.50;99.90;;;;;;4994203;28;20851;-71
2022/04/30 05:31:36;;;;;;;0.40;0.30;;;10.50;99.90;;;;;;4989411;28;20426;-71
2022/04/30 05:34:34;;;;;;;0.80;0.70;;;10.60;99.90;;;;;;5032670;28;20429;-71
2022/04/30 05:37:08;;;;;;;0.40;0.30;;;10.70;99.90;;;;;;5033105;28;20410;-71
2022/04/30 05:40:15;;;;;;;0.40;0.30;;;10.60;99.90;;;;;;5008116;28;20420;-71
2022/04/30 05:46:19;;;;;;;0.40;0.20;;;10.90;99.90;;;;;;5000557;28;20442;-72
2022/04/30 05:52:08;;;;;;;0.88;0.88;;;10.80;99.90;;;;;;5004028;28;20512;-71
2022/04/30 05:54:59;;;;;;;0.40;0.30;;;10.90;99.90;;;;;;5005587;28;20413;-71
2022/04/30 05:57:25;;;;;;;0.40;0.30;;;10.80;99.90;;;;;;5013057;28;20408;-71
2022/04/30 05:59:51;;;;;;;0.40;0.20;;;10.70;99.90;;;;;;5013606;28;20392;-71
2022/04/30 06:02:17;;;;;;;0.40;0.20;;;11.00;99.90;;;;;;5024959;28;20412;-71
2022/04/30 06:04:43;;;;;;;0.60;0.60;;;11.00;99.90;;;;;;5013280;28;20389;-71
2022/04/30 06:07:09;;;;;;;0.40;0.28;;;11.20;99.90;;;;;;5027699;28;20849;-73
2022/04/30 06:09:35;;;;;;;0.40;0.20;;;11.40;99.90;;;;;;5013299;28;20510;-71
2022/04/30 06:12:01;;;;;;;0.70;0.70;;;11.40;99.90;;;;;;5012709;28;20503;-71
2022/04/30 06:14:27;;;;;;;1.15;0.88;;;11.50;99.90;;;;;;5010919;28;20484;-71
2022/04/30 06:16:53;;;;;;;2.40;1.50;;;11.50;99.90;;;;;;5012701;28;20913;-71
2022/04/30 06:19:19;;;;;;;0.40;0.30;;;11.30;99.90;;;;;;5007384;28;20799;-72
2022/04/30 06:21:45;;;;;;;0.40;0.30;;;11.50;99.90;;;;;;5011907;28;20405;-71
2022/04/30 06:24:11;;;;;;;0.90;0.70;;;11.60;99.90;;;;;;5010734;28;20415;-72
2022/04/30 06:26:37;;;;;;;0.40;0.30;;;11.60;99.90;;;;;;5010569;28;20405;-71
2022/04/30 06:29:04;;;;;;;0.40;0.20;;;11.60;99.90;;;;;;5012574;28;20400;-71
2022/04/30 06:31:30;;;;;;;0.65;0.65;;;11.70;99.90;;;;;;5014805;28;20737;-70
2022/04/30 06:33:56;;;;;;;0.50;0.50;;;11.60;99.90;;;;;;5011579;28;20411;-71
2022/04/30 06:36:22;;;;;;;0.90;0.68;;;11.70;99.90;;;;;;5012617;28;20428;-70
2022/04/30 06:38:49;;;;;;;0.40;0.40;;;11.90;99.90;;;;;;5011376;28;20463;-71
2022/04/30 06:41:15;;;;;;;0.90;0.90;;;12.00;99.90;;;;;;5011929;28;20789;-70
2022/04/30 06:43:44;;;;;;;0.40;0.30;;;12.20;99.90;;;;;;5011153;28;20401;-70
2022/04/30 06:46:11;;;;;;;0.50;0.30;;;12.20;99.90;;;;;;5011890;28;20479;-71
2022/04/30 06:48:36;;;;;;;0.57;0.57;;;12.10;99.90;;;;;;5011291;28;20471;-71
2022/04/30 06:51:02;;;;;;;0.40;0.20;;;12.10;99.90;;;;;;5009535;28;20508;-71
2022/04/30 06:58:59;;;;;;;0.40;0.30;;;12.40;99.90;;;;;;5028434;28;20445;-70
2022/04/30 07:01:37;;;;;;;0.40;0.30;;;12.40;99.90;;;;;;5031932;28;20398;-70
2022/04/30 07:04:05;;;;;;;0.40;0.20;;;12.40;99.90;;;;;;5031467;28;20851;-71
2022/04/30 07:06:35;;;;;;;0.57;0.57;;;12.50;99.90;;;;;;5031874;28;20397;-70
2022/04/30 07:09:03;;;;;;;0.60;0.60;;;12.50;99.90;;;;;;5031246;28;20670;-71
2022/04/30 07:11:34;;;;;;;0.40;0.20;;;12.50;99.90;;;;;;4992113;28;20411;-71
2022/04/30 07:14:00;;;;;;;0.40;0.40;;;12.50;99.90;;;;;;5005306;28;20393;-70
2022/04/30 07:16:26;;;;;;;1.40;0.90;;;12.60;99.90;;;;;;5011592;28;20388;-70
2022/04/30 07:18:51;;;;;;;0.60;0.60;;;12.60;99.90;;;;;;5011253;28;20785;-70
2022/04/30 07:21:17;;;;;;;0.40;0.20;;;12.70;99.90;;;;;;5011984;28;20980;-70
2022/04/30 07:23:43;;;;;;;0.40;0.30;;;12.90;99.90;;;;;;5011962;28;20412;-70
2022/04/30 07:26:09;;;;;;;0.40;0.40;;;12.80;99.90;;;;;;5025843;28;20454;-70
2022/04/30 07:28:35;;;;;;;0.40;0.20;;;12.80;99.90;;;;;;5011568;28;20392;-70
2022/04/30 07:31:10;;;;;;;0.40;0.20;;;12.80;99.90;;;;;;5027614;28;20773;-71
2022/04/30 07:33:36;;;;;;;0.40;0.20;;;12.90;99.90;;;;;;5017321;28;20416;-71
2022/04/30 07:36:03;;;;;;;0.40;0.20;;;12.90;99.90;;;;;;5025527;28;20387;-71
2022/04/30 07:38:31;;;;;;;1.30;0.80;;;13.40;99.90;;;;;;5027992;28;20425;-70
2022/04/30 07:40:57;;;;;;;0.40;0.30;;;13.60;99.90;;;;;;5006751;28;20419;-70
2022/04/30 07:43:26;;;;;;;0.50;0.50;;;13.50;99.90;;;;;;5004854;28;20410;-70
2022/04/30 07:45:51;;;;;;;0.40;0.30;;;13.80;99.90;;;;;;5014824;28;20409;-70
2022/04/30 07:48:17;;;;;;;1.60;0.90;;;13.70;99.90;;;;;;5011341;28;20907;-71
2022/04/30 07:50:46;;;;;;;0.40;0.30;;;13.70;99.90;;;;;;5009025;28;20424;-71
2022/04/30 07:53:18;;;;;;;0.50;0.50;;;14.00;99.90;;;;;;5005752;28;20394;-71
2022/04/30 07:55:44;;;;;;;0.70;0.70;;;14.50;99.90;;;;;;5008453;28;20755;-71
2022/04/30 07:58:11;;;;;;;0.70;0.70;;;14.60;99.90;;;;;;5004821;28;20399;-73
2022/04/30 08:00:37;;;;;;;0.40;0.30;;;14.70;99.90;;;;;;5006273;28;20408;-71
2022/04/30 08:03:06;;;;;;;0.40;0.20;;;14.50;99.90;;;;;;5009570;28;20826;-71
2022/04/30 08:05:32;;;;;;;0.40;0.38;;;14.40;99.90;;;;;;5009303;28;21207;-71
2022/04/30 08:07:58;;;;;;;0.60;0.60;;;14.30;99.90;;;;;;5012812;28;20774;-71
2022/04/30 08:10:26;;;;;;;0.60;0.60;;;14.30;99.90;;;;;;5007607;28;20417;-71
2022/04/30 08:12:56;;;;;;;1.00;0.70;;;14.10;99.90;;;;;;5010946;28;20401;-71
2022/04/30 08:15:26;;;;;;;0.40;0.30;;;14.10;99.90;;;;;;5006535;28;20387;-71
2022/04/30 08:17:52;;;;;;;0.40;0.30;;;14.00;99.90;;;;;;5007783;28;20409;-71
2022/04/30 08:20:18;;;;;;;0.60;0.60;;;14.10;99.90;;;;;;5009080;28;20408;-71
2022/04/30 08:22:47;;;;;;;0.40;0.20;;;13.80;99.90;;;;;;5007812;28;20877;-70
2022/04/30 08:25:13;;;;;;;1.00;0.70;;;13.70;99.90;;;;;;5009605;28;20404;-70
2022/04/30 08:27:39;;;;;;;0.40;0.30;;;13.90;99.90;;;;;;5014970;28;20869;-71
2022/04/30 08:30:06;;;;;;;0.52;0.52;;;13.80;99.90;;;;;;5009893;28;20401;-70
2022/04/30 08:32:31;;;;;;;0.40;0.40;;;14.00;99.90;;;;;;5010745;28;20393;-73
2022/04/30 08:35:01;;;;;;;0.40;0.30;;;14.20;99.90;;;;;;4995634;28;20382;-70
2022/04/30 08:37:27;;;;;;;2.67;2.45;;;14.00;99.90;;;;;;4990822;28;20402;-70
2022/04/30 08:39:53;;;;;;;0.50;0.50;;;13.90;99.90;;;;;;4990470;28;20504;-71
2022/04/30 08:42:22;;;;;;;1.10;1.00;;;13.90;99.90;;;;;;4991090;28;20379;-71
2022/04/30 08:44:48;;;;;;;0.40;0.30;;;13.70;99.90;;;;;;5006099;28;20389;-70
2022/04/30 08:47:14;;;;;;;0.40;0.30;;;14.00;99.90;;;;;;4995639;28;20407;-71
2022/04/30 08:49:41;;;;;;;0.57;0.57;;;14.10;99.90;;;;;;5010007;28;20409;-75
2022/04/30 08:52:08;;;;;;;0.40;0.30;;;14.20;99.90;;;;;;5013819;28;20470;-71
2022/04/30 08:54:34;;;;;;;0.70;0.70;;;14.20;99.90;;;;;;5013924;28;20407;-71
2022/04/30 08:57:00;;;;;;;0.47;0.47;;;14.20;99.90;;;;;;5013246;28;20393;-71
2022/04/30 08:59:27;;;;;;;0.40;0.30;;;14.20;99.90;;;;;;5013735;28;20488;-71
2022/04/30 09:01:58;;;;;;;0.40;0.30;;;14.10;99.90;;;;;;5011503;28;20428;-71
2022/04/30 09:04:26;;;;;;;0.40;0.30;;;14.20;99.90;;;;;;5003593;28;20389;-70
2022/04/30 09:06:55;;;;;;;1.10;1.10;;;14.10;99.90;;;;;;4998686;28;20420;-75
2022/04/30 09:09:28;;;;;;;0.40;0.30;;;14.00;99.90;;;;;;5009364;28;20481;-71
2022/04/30 09:12:04;;;;;;;0.40;0.30;;;13.80;99.90;;;;;;5000719;28;20552;-73
2022/04/30 09:14:32;;;;;;;0.40;0.40;;;14.00;99.90;;;;;;5012398;28;20376;-72
2022/04/30 09:17:06;;;;;;;0.40;0.20;;;14.10;99.90;;;;;;5028313;28;20913;-74
2022/04/30 09:19:52;;;;;;;0.50;0.50;;;14.00;99.90;;;;;;5014320;28;20427;-71
2022/04/30 09:22:33;;;;;;;0.40;0.40;;;14.00;99.90;;;;;;5009975;28;20511;-71
2022/04/30 09:25:01;;;;;;;1.20;0.50;;;14.30;99.90;;;;;;5001368;28;20405;-71
2022/04/30 09:27:27;;;;;;;0.50;0.50;;;14.40;99.90;;;;;;5006862;28;20404;-71
2022/04/30 09:29:53;;;;;;;0.50;0.50;;;14.50;99.90;;;;;;5028755;28;20492;-70
2022/04/30 09:32:28;;;;;;;0.80;0.80;;;14.70;99.90;;;;;;5024727;28;20394;-71
2022/04/30 09:37:41;;;;;;;0.43;0.38;;;14.90;99.90;;;;;;5007559;28;20439;-70
2022/04/30 09:40:27;;;;;;;0.50;0.50;;;14.80;99.90;;;;;;5011369;28;20418;-71
2022/04/30 09:42:54;;;;;;;0.50;0.50;;;14.80;99.90;;;;;;5012732;28;20858;-71
2022/04/30 09:45:31;;;;;;;0.40;0.40;;;15.00;99.90;;;;;;5012146;28;20407;-70
2022/04/30 09:47:59;;;;;;;0.90;0.80;;;15.10;99.90;;;;;;5013416;28;20385;-71
2022/04/30 09:56:05;;;;;;;3.20;1.20;;;14.60;99.90;;;;;;5012992;28;20864;-71
2022/04/30 09:58:35;;;;;;;0.50;0.50;;;15.10;99.90;;;;;;5012416;28;20485;-73
2022/04/30 10:01:01;;;;;;;1.40;0.90;;;15.20;99.90;;;;;;5013021;28;20416;-72
2022/04/30 10:03:31;;;;;;;0.40;0.40;;;15.20;99.90;;;;;;5011670;28;20407;-73
2022/04/30 10:06:05;;;;;;;0.40;0.30;;;15.30;99.90;;;;;;5012083;28;20434;-72
2022/04/30 10:08:42;;;;;;;0.40;0.30;;;15.20;99.90;;;;;;5010520;28;20405;-73
2022/04/30 10:11:32;;;;;;;0.40;0.30;;;15.40;99.90;;;;;;5014499;28;20501;-72
2022/04/30 10:14:09;;;;;;;3.90;1.00;;;14.80;99.90;;;;;;5007560;28;20864;-72
2022/04/30 10:16:36;;;;;;;0.60;0.60;;;15.10;99.90;;;;;;4992529;28;20894;-71
2022/04/30 10:19:16;;;;;;;0.40;0.20;;;15.30;99.90;;;;;;5012532;28;20412;-71
2022/04/30 10:21:43;;;;;;;0.40;0.20;;;15.50;99.90;;;;;;5003476;28;20413;-73
2022/04/30 10:24:12;;;;;;;1.20;1.10;;;15.70;99.90;;;;;;4993253;28;20399;-72
2022/04/30 10:26:58;;;;;;;0.40;0.27;;;15.90;99.90;;;;;;4992827;28;20389;-73
2022/04/30 10:29:24;;;;;;;1.40;1.40;;;15.80;99.90;;;;;;5005239;28;20487;-73
2022/04/30 10:31:49;;;;;;;0.40;0.40;;;15.50;99.90;;;;;;5013453;28;20543;-72
2022/04/30 10:34:15;;;;;;;0.40;0.30;;;15.30;99.90;;;;;;5012567;28;20393;-73
2022/04/30 10:36:41;;;;;;;0.40;0.20;;;15.50;99.90;;;;;;5012152;28;20516;-75
2022/04/30 10:39:18;;;;;;;0.40;0.20;;;15.70;99.90;;;;;;5011794;28;20487;-73
2022/04/30 10:41:50;;;;;;;0.40;0.40;;;15.60;99.90;;;;;;5012322;28;20389;-73
2022/04/30 10:44:28;;;;;;;0.50;0.50;;;15.60;99.90;;;;;;5012472;28;20440;-74
2022/04/30 10:46:53;;;;;;;0.40;0.22;;;15.90;99.90;;;;;;5011656;28;20400;-74
2022/04/30 10:49:19;;;;;;;0.40;0.30;;;16.20;99.90;;;;;;5004380;28;20983;-74
2022/04/30 10:51:45;;;;;;;0.40;0.20;;;15.80;99.90;;;;;;5012038;28;20424;-73
2022/04/30 10:54:21;;;;;;;0.60;0.60;;;15.90;99.90;;;;;;5025555;28;20409;-74
2022/04/30 10:56:56;;;;;;;0.50;0.50;;;15.70;99.90;;;;;;5015491;28;20420;-72
2022/04/30 10:59:24;;;;;;;0.40;0.30;;;15.90;99.90;;;;;;5011250;28;20397;-72
2022/04/30 11:01:53;;;;;;;0.40;0.20;;;15.70;99.90;;;;;;5025833;28;20395;-73
2022/04/30 11:04:20;;;;;;;0.40;0.40;;;15.40;99.90;;;;;;5006241;28;20476;-74
2022/04/30 11:06:52;;;;;;;0.40;0.30;;;15.70;99.90;;;;;;5014062;28;20739;-72
2022/04/30 11:09:19;;;;;;;0.50;0.50;;;15.90;99.90;;;;;;5008779;28;20409;-74
2022/04/30 11:11:47;;;;;;;2.10;0.80;;;15.80;99.90;;;;;;5011238;28;20876;-74
2022/04/30 11:14:13;;;;;;;0.40;0.40;;;15.90;99.90;;;;;;5025235;28;20897;-73
2022/04/30 11:16:45;;;;;;;2.00;0.90;;;16.50;99.90;;;;;;5006364;28;20403;-74
2022/04/30 11:19:13;;;;;;;0.40;0.40;;;16.30;99.90;;;;;;5007331;28;20436;-72
2022/04/30 11:21:42;;;;;;;0.43;0.43;;;16.20;99.90;;;;;;5008773;28;20422;-72
2022/04/30 11:24:09;;;;;;;0.40;0.28;;;16.40;99.90;;;;;;5008674;28;20412;-71
2022/04/30 11:26:39;;;;;;;1.00;0.70;;;16.20;99.80;;;;;;5006589;28;20451;-73
2022/04/30 11:29:13;;;;;;;0.40;0.22;;;16.50;99.60;;;;;;4999778;28;20401;-73
2022/04/30 11:31:41;;;;;;;2.60;1.20;;;16.50;98.20;;;;;;5016111;28;20422;-72
2022/04/30 11:34:10;;;;;;;0.60;0.60;;;16.00;99.20;;;;;;5019456;28;20432;-73
2022/04/30 11:36:41;;;;;;;0.40;0.30;;;16.70;98.40;;;;;;5012634;28;20666;-75
2022/04/30 11:39:10;;;;;;;1.10;1.00;;;16.80;98.30;;;;;;5011079;28;20418;-74
2022/04/30 11:41:50;;;;;;;0.40;0.20;;;16.80;98.00;;;;;;5010462;28;20790;-74
2022/04/30 11:44:22;;;;;;;0.40;0.40;;;16.70;98.90;;;;;;5018216;28;21049;-73
2022/04/30 11:46:51;;;;;;;0.40;0.32;;;16.40;99.90;;;;;;5017299;28;20469;-74
2022/04/30 11:49:20;;;;;;;0.40;0.30;;;16.40;99.90;;;;;;5015795;28;20428;-73
2022/04/30 11:51:47;;;;;;;0.40;0.20;;;16.60;99.90;;;;;;5013471;28;20428;-73
2022/04/30 11:54:22;;;;;;;1.20;0.90;;;16.80;99.30;;;;;;5016401;28;20833;-72
2022/04/30 11:56:50;;;;;;;0.40;0.20;;;16.40;99.20;;;;;;5015413;28;20391;-72
2022/04/30 11:59:16;;;;;;;0.40;0.30;;;16.10;99.90;;;;;;5017676;28;20422;-72
2022/04/30 12:01:42;;;;;;;0.50;0.35;;;16.60;99.90;;;;;;5019695;28;20806;-73
2022/04/30 12:04:15;;;;;;;0.40;0.40;;;16.90;98.60;;;;;;5017301;28;20491;-73
2022/04/30 12:06:45;;;;;;;0.80;0.80;;;17.00;98.40;;;;;;5016771;28;20419;-73
2022/04/30 12:09:19;;;;;;;0.40;0.20;;;16.80;97.60;;;;;;5019906;28;20397;-72
2022/04/30 12:11:53;;;;;;;0.40;0.30;;;16.60;97.80;;;;;;5029564;28;20419;-71
2022/04/30 12:14:20;;;;;;;0.40;0.38;;;17.40;96.20;;;;;;5016120;28;20407;-72
2022/04/30 12:16:47;;;;;;;0.40;0.40;;;18.40;94.50;;;;;;5019279;28;20514;-72
2022/04/30 12:25:15;;;;;;;0.40;0.20;;;18.70;90.20;;;;;;5020807;28;20389;-72
2022/04/30 12:27:51;;;;;;;0.40;0.30;;;18.50;92.20;;;;;;5024626;28;20881;-72
2022/04/30 12:30:18;;;;;;;0.40;0.20;;;19.50;86.30;;;;;;5022959;28;20560;-73
2022/04/30 12:32:55;;;;;;;0.60;0.60;;;20.20;80.40;;;;;;5023571;28;20422;-72
2022/04/30 12:35:33;;;;;;;0.70;0.70;;;20.30;82.90;;;;;;5019796;28;20905;-72
2022/04/30 12:38:10;;;;;;;0.50;0.40;;;20.30;75.50;;;;;;5013760;28;20423;-73
2022/04/30 12:40:38;;;;;;;0.50;0.40;;;18.40;79.80;;;;;;5022642;28;20419;-71
2022/04/30 12:43:04;;;;;;;0.40;0.30;;;18.00;81.30;;;;;;5023068;28;20390;-73
2022/04/30 12:45:33;;;;;;;0.40;0.20;;;18.30;83.20;;;;;;5017084;28;20405;-72
2022/04/30 12:48:00;;;;;;;0.40;0.30;;;17.50;84.60;;;;;;5021319;28;20399;-72
2022/04/30 12:50:26;;;;;;;0.40;0.30;;;17.60;85.90;;;;;;5017485;28;20424;-72
2022/04/30 12:52:53;;;;;;;0.40;0.20;;;17.20;88.50;;;;;;5019646;28;20470;-71
2022/04/30 12:55:18;;;;;;;0.80;0.80;;;16.70;87.50;;;;;;5012701;28;20381;-70
2022/04/30 12:57:45;;;;;;;0.40;0.20;;;15.70;90.40;;;;;;5013502;28;20403;-71
2022/04/30 13:00:12;;;;;;;0.40;0.20;;;15.60;92.60;;;;;;5010917;28;20419;-73
2022/04/30 13:02:39;;;;;;;1.00;0.70;;;15.50;93.30;;;;;;5003712;28;20746;-73
2022/04/30 13:05:12;;;;;;;0.40;0.30;;;15.60;93.70;;;;;;5011860;28;20972;-72
2022/04/30 13:07:38;;;;;;;0.40;0.30;;;15.50;94.90;;;;;;4991982;28;20436;-71
2022/04/30 13:15:33;;;;;;;0.50;0.50;;;15.60;94.60;;;;;;5013478;28;20380;-72
2022/04/30 13:18:03;;;;;;;0.40;0.20;;;15.80;94.70;;;;;;5029423;28;20401;-72
2022/04/30 13:20:29;;;;;;;0.40;0.30;;;15.90;94.40;;;;;;5012795;28;20898;-72
2022/04/30 13:22:58;;;;;;;0.60;0.60;;;16.10;94.90;;;;;;5013995;28;20384;-72
2022/04/30 13:25:24;;;;;;;0.40;0.20;;;16.20;95.50;;;;;;5013205;28;20874;-72
2022/04/30 13:27:50;;;;;;;0.57;0.55;;;16.20;94.30;;;;;;5013941;28;20384;-73
2022/04/30 13:30:19;;;;;;;0.40;0.30;;;16.10;94.00;;;;;;5013543;28;20853;-74
2022/04/30 13:32:46;;;;;;;0.40;0.30;;;15.70;91.60;;;;;;5029865;28;20388;-70
2022/04/30 13:35:13;;;;;;;0.40;0.27;;;15.60;91.30;;;;;;5033375;28;20384;-71
2022/04/30 13:37:41;;;;;;;0.40;0.30;;;15.80;92.10;;;;;;5032211;28;20477;-70
2022/04/30 13:40:15;;;;;;;0.60;0.60;;;15.90;90.80;;;;;;5033243;28;20410;-72
2022/04/30 13:42:41;;;;;;;0.40;0.30;;;15.90;92.10;;;;;;5032798;28;20398;-72
2022/04/30 13:45:08;;;;;;;0.40;0.20;;;16.40;91.10;;;;;;5033384;28;20395;-71
2022/04/30 13:47:36;;;;;;;0.45;0.45;;;16.20;84.50;;;;;;5032677;28;20881;-69
2022/04/30 13:50:04;;;;;;;0.68;0.65;;;16.40;86.20;;;;;;5033296;28;20390;-71
2022/04/30 13:52:32;;;;;;;0.43;0.35;;;16.80;86.60;;;;;;5032548;28;20387;-72
2022/04/30 13:54:58;;;;;;;0.40;0.30;;;16.60;85.10;;;;;;5033289;28;20419;-72
2022/04/30 13:57:24;;;;;;;0.40;0.30;;;16.30;84.60;;;;;;5033481;28;20418;-72
2022/04/30 13:59:50;;;;;;;0.80;0.80;;;16.20;87.30;;;;;;5038222;28;20400;-69
2022/04/30 14:02:15;;;;;;;1.05;0.95;;;15.70;89.80;;;;;;5020697;28;20447;-71
2022/04/30 14:04:41;;;;;;;0.40;0.30;;;15.60;90.60;;;;;;5019464;28;20439;-74
2022/04/30 14:07:10;;;;;;;0.40;0.30;;;15.70;90.40;;;;;;5022113;28;20404;-71